Time;durP1;ratioP1;P1;durP2;ratioP2;P2;SDS_P1;SDS_P2;PMS_P1;PMS_P2;Temp;Humidity;BMP_temperature;BMP_pressure;BME280_temperature;BME280_humidity;BME280_pressure;Samples;Min_cycle;Max_cycle;Signal;HPM_P1;HPM_P2
2023/07/11 00:00:03;;;;;;;7.93;6.87;;;;;;;;;;4400531;32;318125;-90
2023/07/11 00:02:30;;;;;;;9.23;5.40;;;;;;;;;;4401410;32;316563;-90
2023/07/11 00:04:58;;;;;;;9.38;6.93;;;;;;;;;;4388660;32;415669;-90
2023/07/11 00:07:25;;;;;;;8.38;6.07;;;;;;;;;;4400922;32;316583;-93
2023/07/11 00:09:54;;;;;;;8.20;5.60;;;;;;;;;;4375955;32;316317;-92
2023/07/11 00:12:28;;;;;;;8.43;5.82;;;;;;;;;;4380911;32;316503;-93
2023/07/11 00:14:57;;;;;;;5.50;4.90;;;;;;;;;;4387523;32;324455;-92
2023/07/11 00:17:24;;;;;;;7.05;5.12;;;;;;;;;;4400551;32;316405;-93
2023/07/11 00:19:53;;;;;;;7.60;5.75;;;;;;;;;;4389284;32;317220;-92
2023/07/11 00:22:21;;;;;;;6.95;5.80;;;;;;;;;;4399142;32;316267;-95
2023/07/11 00:24:48;;;;;;;6.45;5.47;;;;;;;;;;4389220;32;317107;-92
2023/07/11 00:27:17;;;;;;;7.68;5.15;;;;;;;;;;4400315;32;316928;-93
2023/07/11 00:29:44;;;;;;;6.32;5.20;;;;;;;;;;4380097;32;316489;-93
2023/07/11 00:32:13;;;;;;;6.85;5.03;;;;;;;;;;4399929;32;316587;-93
2023/07/11 00:34:40;;;;;;;13.88;6.50;;;;;;;;;;4387737;32;316359;-93
2023/07/11 00:37:07;;;;;;;6.12;5.53;;;;;;;;;;4399602;32;317516;-94
2023/07/11 00:39:35;;;;;;;9.65;5.43;;;;;;;;;;4389475;32;316470;-92
2023/07/11 00:42:03;;;;;;;8.55;5.93;;;;;;;;;;4390233;32;316445;-92
2023/07/11 00:44:48;;;;;;;6.57;5.57;;;;;;;;;;4383102;32;316590;-91
2023/07/11 00:47:16;;;;;;;7.82;5.35;;;;;;;;;;4373075;32;416156;-83
2023/07/11 00:49:43;;;;;;;7.03;5.50;;;;;;;;;;4388531;32;339417;-83
2023/07/11 00:52:11;;;;;;;10.98;5.80;;;;;;;;;;4391592;32;317326;-84
2023/07/11 00:54:38;;;;;;;7.32;6.45;;;;;;;;;;4388152;32;317363;-84
2023/07/11 00:57:10;;;;;;;6.22;5.62;;;;;;;;;;4399329;32;316987;-84
2023/07/11 00:59:38;;;;;;;5.43;4.93;;;;;;;;;;4387617;32;317209;-84
2023/07/11 01:02:08;;;;;;;7.12;5.57;;;;;;;;;;4398840;32;316473;-84
2023/07/11 01:04:37;;;;;;;9.77;6.10;;;;;;;;;;4389229;32;317130;-84
2023/07/11 01:07:05;;;;;;;9.43;5.55;;;;;;;;;;4398082;32;316921;-84
2023/07/11 01:09:32;;;;;;;7.28;5.50;;;;;;;;;;4390546;32;317221;-86
2023/07/11 01:12:01;;;;;;;7.22;6.35;;;;;;;;;;4395398;32;316881;-84
2023/07/11 01:14:28;;;;;;;6.78;5.65;;;;;;;;;;4398905;32;316732;-84
2023/07/11 01:16:55;;;;;;;7.25;5.28;;;;;;;;;;4390152;32;316615;-84
2023/07/11 01:19:23;;;;;;;10.18;5.53;;;;;;;;;;4399780;32;316585;-88
2023/07/11 01:21:52;;;;;;;9.50;5.93;;;;;;;;;;4389801;32;318344;-83
2023/07/11 01:24:18;;;;;;;7.60;5.95;;;;;;;;;;4396777;32;316611;-83
2023/07/11 01:26:45;;;;;;;6.53;5.57;;;;;;;;;;4388890;32;316450;-83
2023/07/11 01:29:12;;;;;;;10.02;6.10;;;;;;;;;;4399570;32;316543;-83
2023/07/11 01:31:39;;;;;;;6.72;5.87;;;;;;;;;;4376259;32;317852;-83
2023/07/11 01:34:08;;;;;;;7.97;5.97;;;;;;;;;;4398573;32;316716;-83
2023/07/11 01:36:35;;;;;;;7.18;5.28;;;;;;;;;;4385341;32;336336;-83
2023/07/11 01:39:06;;;;;;;8.82;5.68;;;;;;;;;;4398966;32;316641;-83
2023/07/11 01:41:34;;;;;;;9.60;6.18;;;;;;;;;;4369430;32;317040;-90
2023/07/11 01:44:02;;;;;;;7.22;5.18;;;;;;;;;;4381328;32;316422;-83
2023/07/11 01:46:29;;;;;;;8.05;4.93;;;;;;;;;;4399574;32;317332;-92
2023/07/11 01:48:55;;;;;;;7.45;5.80;;;;;;;;;;4387976;32;317246;-83
2023/07/11 01:51:22;;;;;;;7.75;6.15;;;;;;;;;;4394704;32;316682;-86
2023/07/11 01:53:52;;;;;;;10.68;5.85;;;;;;;;;;4387611;32;317080;-83
2023/07/11 01:56:21;;;;;;;8.60;6.12;;;;;;;;;;4396994;32;317541;-83
2023/07/11 01:58:48;;;;;;;8.05;5.75;;;;;;;;;;4380102;32;317018;-83
2023/07/11 02:01:15;;;;;;;6.30;4.95;;;;;;;;;;4398013;32;317347;-83
2023/07/11 02:03:42;;;;;;;6.93;5.43;;;;;;;;;;4389350;32;316430;-86
2023/07/11 02:06:09;;;;;;;10.80;6.65;;;;;;;;;;4399121;32;317398;-84
2023/07/11 02:08:37;;;;;;;10.43;6.12;;;;;;;;;;4386706;32;318234;-83
2023/07/11 02:11:04;;;;;;;8.30;5.35;;;;;;;;;;4398224;32;317639;-84
2023/07/11 02:13:32;;;;;;;9.52;6.45;;;;;;;;;;4398784;32;316611;-83
2023/07/11 02:15:59;;;;;;;7.55;5.75;;;;;;;;;;4386394;32;416121;-84
2023/07/11 02:18:26;;;;;;;7.40;5.93;;;;;;;;;;4398041;32;316555;-84
2023/07/11 02:20:56;;;;;;;8.63;5.68;;;;;;;;;;4387891;32;316964;-84
2023/07/11 02:23:23;;;;;;;6.72;5.95;;;;;;;;;;4398974;32;317009;-83
2023/07/11 02:25:53;;;;;;;7.87;6.28;;;;;;;;;;4389048;32;316764;-84
2023/07/11 02:28:19;;;;;;;7.30;5.80;;;;;;;;;;4398179;32;317399;-84
2023/07/11 02:30:48;;;;;;;7.47;5.65;;;;;;;;;;4388835;32;344070;-83
2023/07/11 02:33:15;;;;;;;15.88;6.10;;;;;;;;;;4398763;32;316675;-83
2023/07/11 02:35:41;;;;;;;10.23;6.60;;;;;;;;;;4379416;32;330531;-83
2023/07/11 02:38:08;;;;;;;9.15;6.78;;;;;;;;;;4398247;32;317489;-84
2023/07/11 02:40:35;;;;;;;8.48;6.40;;;;;;;;;;4386207;32;317293;-83
2023/07/11 02:43:01;;;;;;;7.97;7.10;;;;;;;;;;4375249;32;317429;-83
2023/07/11 02:45:32;;;;;;;9.10;8.18;;;;;;;;;;4397543;32;316563;-83
2023/07/11 02:48:00;;;;;;;12.68;8.35;;;;;;;;;;4385949;32;416267;-83
2023/07/11 02:50:27;;;;;;;10.05;7.45;;;;;;;;;;4392953;32;317618;-85
2023/07/11 02:52:56;;;;;;;7.65;5.80;;;;;;;;;;4381064;32;318150;-83
2023/07/11 02:55:23;;;;;;;8.07;6.45;;;;;;;;;;4398155;32;316562;-83
2023/07/11 02:57:50;;;;;;;9.82;7.03;;;;;;;;;;4388726;32;317562;-82
2023/07/11 03:00:17;;;;;;;10.32;6.40;;;;;;;;;;4396234;32;316512;-85
2023/07/11 03:02:44;;;;;;;6.85;6.20;;;;;;;;;;4380667;32;317563;-83
2023/07/11 03:05:12;;;;;;;8.40;5.97;;;;;;;;;;4384818;32;316568;-82
2023/07/11 03:07:39;;;;;;;7.55;6.18;;;;;;;;;;4386813;32;316745;-83
2023/07/11 03:10:07;;;;;;;8.35;5.72;;;;;;;;;;4396977;32;316752;-86
2023/07/11 03:12:34;;;;;;;7.65;6.03;;;;;;;;;;4387096;32;317238;-83
2023/07/11 03:15:00;;;;;;;7.35;6.57;;;;;;;;;;4398092;32;316522;-83
2023/07/11 03:17:27;;;;;;;6.70;5.62;;;;;;;;;;4398549;32;317217;-83
2023/07/11 03:19:54;;;;;;;8.35;5.97;;;;;;;;;;4387669;32;317487;-84
2023/07/11 03:22:23;;;;;;;14.43;5.50;;;;;;;;;;4398599;32;316509;-83
2023/07/11 03:24:50;;;;;;;12.68;6.60;;;;;;;;;;4374016;32;317775;-85
2023/07/11 03:27:17;;;;;;;15.45;6.47;;;;;;;;;;4397165;32;318412;-83
2023/07/11 03:29:44;;;;;;;10.60;6.12;;;;;;;;;;4387214;32;318596;-84
2023/07/11 03:32:11;;;;;;;12.98;6.70;;;;;;;;;;4399193;32;353843;-83
2023/07/11 03:34:38;;;;;;;9.77;6.32;;;;;;;;;;4389428;32;318229;-83
2023/07/11 03:37:04;;;;;;;9.73;5.80;;;;;;;;;;4393872;32;317189;-86
2023/07/11 03:39:33;;;;;;;6.85;6.15;;;;;;;;;;4398799;32;316979;-83
2023/07/11 03:41:59;;;;;;;7.50;6.65;;;;;;;;;;4375742;32;416487;-83
2023/07/11 03:44:26;;;;;;;10.55;6.75;;;;;;;;;;4395582;32;316608;-85
2023/07/11 03:46:53;;;;;;;8.75;7.40;;;;;;;;;;4381201;32;317816;-83
2023/07/11 03:49:19;;;;;;;8.30;6.10;;;;;;;;;;4395029;32;316708;-83
2023/07/11 03:51:46;;;;;;;8.00;6.18;;;;;;;;;;4383197;32;316418;-85
2023/07/11 03:54:13;;;;;;;12.10;7.57;;;;;;;;;;4399458;32;316911;-83
2023/07/11 03:56:41;;;;;;;9.05;6.45;;;;;;;;;;4389135;32;318040;-83
2023/07/11 03:59:08;;;;;;;13.32;6.37;;;;;;;;;;4399013;32;317193;-83
2023/07/11 04:01:35;;;;;;;12.57;6.43;;;;;;;;;;4391577;32;317355;-85
2023/07/11 04:04:02;;;;;;;10.63;7.07;;;;;;;;;;4401202;32;318152;-87
2023/07/11 04:06:29;;;;;;;9.18;6.05;;;;;;;;;;4398712;32;317883;-83
2023/07/11 04:08:55;;;;;;;11.68;6.72;;;;;;;;;;4387071;32;347067;-83
2023/07/11 04:11:22;;;;;;;7.55;6.22;;;;;;;;;;4399478;32;317845;-83
2023/07/11 04:13:50;;;;;;;14.38;7.00;;;;;;;;;;4388684;32;317210;-84
2023/07/11 04:16:17;;;;;;;10.43;6.90;;;;;;;;;;4399180;32;317881;-85
2023/07/11 04:18:44;;;;;;;16.15;6.65;;;;;;;;;;4389161;32;318289;-83
2023/07/11 04:21:12;;;;;;;10.55;6.57;;;;;;;;;;4396273;32;318025;-84
2023/07/11 04:23:39;;;;;;;10.20;6.53;;;;;;;;;;4388579;32;317956;-84
2023/07/11 04:26:06;;;;;;;11.02;6.45;;;;;;;;;;4398447;32;317575;-83
2023/07/11 04:28:33;;;;;;;12.00;7.05;;;;;;;;;;4390343;32;317738;-87
2023/07/11 04:31:01;;;;;;;9.02;5.65;;;;;;;;;;4400204;32;318510;-83
2023/07/11 04:33:27;;;;;;;11.35;7.10;;;;;;;;;;4400161;32;319379;-83
2023/07/11 04:35:54;;;;;;;14.40;7.18;;;;;;;;;;4390316;32;318124;-84
2023/07/11 04:38:21;;;;;;;16.02;7.43;;;;;;;;;;4399731;32;317658;-83
2023/07/11 04:40:48;;;;;;;8.93;7.25;;;;;;;;;;4388007;32;318382;-83
2023/07/11 04:43:15;;;;;;;11.85;7.53;;;;;;;;;;4394182;32;316461;-84
2023/07/11 04:45:42;;;;;;;11.33;6.17;;;;;;;;;;4388925;32;328534;-83
2023/07/11 04:48:10;;;;;;;12.85;7.22;;;;;;;;;;4396119;32;317356;-92
2023/07/11 04:50:36;;;;;;;20.98;7.12;;;;;;;;;;4386282;32;317510;-90
2023/07/11 04:53:03;;;;;;;15.57;7.32;;;;;;;;;;4399298;32;317589;-92
2023/07/11 04:55:30;;;;;;;12.75;6.78;;;;;;;;;;4399375;32;318056;-93
2023/07/11 04:57:57;;;;;;;8.50;6.30;;;;;;;;;;4385835;32;418410;-90
2023/07/11 05:00:24;;;;;;;12.95;6.12;;;;;;;;;;4400617;32;316415;-92
2023/07/11 05:02:51;;;;;;;10.15;7.03;;;;;;;;;;4390264;32;318290;-93
2023/07/11 05:05:20;;;;;;;9.10;5.85;;;;;;;;;;4399236;32;318386;-83
2023/07/11 05:07:46;;;;;;;8.18;6.22;;;;;;;;;;4378787;32;317144;-83
2023/07/11 05:10:13;;;;;;;11.85;7.37;;;;;;;;;;4394779;32;316699;-83
2023/07/11 05:12:40;;;;;;;10.68;8.43;;;;;;;;;;4383023;32;317781;-83
2023/07/11 05:15:09;;;;;;;12.18;8.32;;;;;;;;;;4397855;32;332455;-83
2023/07/11 05:17:36;;;;;;;7.03;6.32;;;;;;;;;;4385710;32;348784;-86
2023/07/11 05:20:02;;;;;;;12.90;6.78;;;;;;;;;;4399951;32;316300;-84
2023/07/11 05:22:30;;;;;;;11.95;7.37;;;;;;;;;;4399431;32;317921;-84
2023/07/11 05:24:57;;;;;;;18.05;6.40;;;;;;;;;;4389790;32;317540;-83
2023/07/11 05:27:25;;;;;;;12.35;6.50;;;;;;;;;;4398579;32;317490;-84
2023/07/11 05:29:52;;;;;;;14.00;6.87;;;;;;;;;;4368422;32;317539;-83
2023/07/11 05:32:19;;;;;;;10.32;6.55;;;;;;;;;;4398546;32;318317;-80
2023/07/11 05:34:45;;;;;;;10.85;6.97;;;;;;;;;;4387610;32;317558;-81
2023/07/11 05:37:12;;;;;;;7.68;6.43;;;;;;;;;;4398102;32;318422;-81
2023/07/11 05:39:41;;;;;;;9.70;5.72;;;;;;;;;;4387458;32;317516;-86
2023/07/11 05:42:07;;;;;;;9.55;6.43;;;;;;;;;;4398170;32;317216;-86
2023/07/11 05:44:34;;;;;;;11.73;7.12;;;;;;;;;;4388401;32;316972;-87
2023/07/11 05:47:01;;;;;;;21.40;10.02;;;;;;;;;;4395377;32;317452;-87
2023/07/11 05:49:28;;;;;;;10.30;7.87;;;;;;;;;;4380473;32;350859;-85
2023/07/11 05:51:54;;;;;;;10.32;6.55;;;;;;;;;;4372564;32;317491;-85
2023/07/11 05:54:22;;;;;;;11.20;7.50;;;;;;;;;;4395208;32;317572;-85
2023/07/11 05:56:50;;;;;;;9.13;6.47;;;;;;;;;;4385757;32;318559;-85
2023/07/11 05:59:18;;;;;;;11.00;6.32;;;;;;;;;;4395454;32;316831;-86
2023/07/11 06:01:45;;;;;;;9.75;7.35;;;;;;;;;;4385555;32;317888;-87
2023/07/11 06:04:13;;;;;;;11.10;7.25;;;;;;;;;;4398266;32;316756;-88
2023/07/11 06:06:42;;;;;;;9.32;6.95;;;;;;;;;;4386892;32;318171;-87
2023/07/11 06:09:11;;;;;;;13.02;7.15;;;;;;;;;;4398008;32;316431;-88
2023/07/11 06:11:38;;;;;;;17.25;8.10;;;;;;;;;;4387308;32;318078;-87
2023/07/11 06:14:07;;;;;;;7.97;6.72;;;;;;;;;;4384074;32;317617;-87
2023/07/11 06:16:34;;;;;;;8.05;6.65;;;;;;;;;;4386491;32;372512;-81
2023/07/11 06:19:01;;;;;;;8.10;6.57;;;;;;;;;;4397899;32;317536;-81
2023/07/11 06:21:27;;;;;;;11.55;7.53;;;;;;;;;;4399147;32;317151;-81
2023/07/11 06:23:54;;;;;;;8.55;6.90;;;;;;;;;;4388682;32;318266;-81
2023/07/11 06:26:21;;;;;;;14.65;7.78;;;;;;;;;;4397737;32;317478;-81
2023/07/11 06:28:48;;;;;;;10.63;7.10;;;;;;;;;;4387500;32;318323;-84
2023/07/11 06:31:16;;;;;;;9.48;7.65;;;;;;;;;;4398536;32;318189;-81
2023/07/11 06:33:43;;;;;;;10.63;6.85;;;;;;;;;;4389163;32;316667;-80
2023/07/11 06:36:12;;;;;;;7.72;6.50;;;;;;;;;;4397715;32;317628;-81
2023/07/11 06:38:39;;;;;;;9.30;6.78;;;;;;;;;;4387406;32;317163;-81
2023/07/11 06:41:07;;;;;;;15.93;6.80;;;;;;;;;;4397097;32;317830;-84
2023/07/11 06:43:34;;;;;;;8.63;6.37;;;;;;;;;;4387172;32;318150;-81
2023/07/11 06:46:02;;;;;;;9.35;6.68;;;;;;;;;;4397362;32;317230;-81
2023/07/11 06:48:32;;;;;;;10.40;6.90;;;;;;;;;;4389042;32;317853;-84
2023/07/11 06:51:01;;;;;;;12.05;6.80;;;;;;;;;;4356436;32;389349;-90
2023/07/11 06:53:30;;;;;;;10.57;6.40;;;;;;;;;;4394413;32;317694;-87
2023/07/11 06:55:57;;;;;;;9.90;7.45;;;;;;;;;;4388563;32;318336;-81
2023/07/11 06:58:24;;;;;;;9.38;6.57;;;;;;;;;;4398449;32;317311;-86
2023/07/11 07:00:56;;;;;;;8.50;6.32;;;;;;;;;;4387452;32;317282;-85
2023/07/11 07:03:23;;;;;;;6.95;6.03;;;;;;;;;;4398480;32;317863;-81
2023/07/11 07:05:53;;;;;;;8.38;6.62;;;;;;;;;;4387501;32;317364;-87
2023/07/11 07:08:21;;;;;;;18.05;6.57;;;;;;;;;;4396953;32;317322;-83
2023/07/11 07:10:49;;;;;;;9.90;6.90;;;;;;;;;;4388210;32;318564;-81
2023/07/11 07:13:17;;;;;;;6.78;5.90;;;;;;;;;;4391086;32;317219;-80
2023/07/11 07:15:47;;;;;;;10.05;6.65;;;;;;;;;;4386311;32;317220;-80
2023/07/11 07:18:14;;;;;;;9.18;6.20;;;;;;;;;;4398606;32;317610;-79
2023/07/11 07:20:41;;;;;;;14.90;6.35;;;;;;;;;;4387638;32;317343;-80
2023/07/11 07:23:09;;;;;;;8.75;6.37;;;;;;;;;;4396426;32;317678;-80
2023/07/11 07:25:37;;;;;;;9.30;5.82;;;;;;;;;;4387807;32;317311;-80
2023/07/11 07:28:04;;;;;;;12.90;6.22;;;;;;;;;;4397038;32;316643;-80
2023/07/11 07:30:31;;;;;;;11.30;5.72;;;;;;;;;;4397030;32;343747;-80
2023/07/11 07:32:58;;;;;;;7.65;6.20;;;;;;;;;;4383434;32;417564;-80
2023/07/11 07:35:25;;;;;;;8.30;6.30;;;;;;;;;;4373904;32;321810;-80
2023/07/11 07:37:51;;;;;;;11.90;7.03;;;;;;;;;;4395042;32;317246;-80
2023/07/11 07:40:20;;;;;;;8.88;6.57;;;;;;;;;;4385686;32;335251;-80
2023/07/11 07:42:46;;;;;;;10.93;5.93;;;;;;;;;;4395598;32;316688;-80
2023/07/11 07:45:13;;;;;;;7.07;6.32;;;;;;;;;;4397382;32;318399;-80
2023/07/11 07:47:40;;;;;;;6.87;5.95;;;;;;;;;;4375170;32;316637;-80
2023/07/11 07:50:08;;;;;;;11.68;6.28;;;;;;;;;;4381996;32;317163;-80
2023/07/11 07:52:34;;;;;;;6.70;5.55;;;;;;;;;;4386283;32;317719;-80
2023/07/11 07:55:01;;;;;;;9.77;6.65;;;;;;;;;;4397710;32;316435;-80
2023/07/11 07:57:29;;;;;;;8.57;6.22;;;;;;;;;;4387780;32;316511;-80
2023/07/11 07:59:56;;;;;;;13.05;7.07;;;;;;;;;;4400949;32;317268;-79
2023/07/11 08:02:23;;;;;;;10.35;6.25;;;;;;;;;;4388724;32;317503;-80
2023/07/11 08:04:50;;;;;;;6.90;6.05;;;;;;;;;;4400410;32;317941;-80
2023/07/11 08:07:17;;;;;;;8.35;6.22;;;;;;;;;;4393303;32;316799;-80
2023/07/11 08:09:44;;;;;;;18.83;7.40;;;;;;;;;;4398537;32;317269;-80
2023/07/11 08:12:11;;;;;;;9.50;6.57;;;;;;;;;;4399635;32;318050;-80
2023/07/11 08:14:42;;;;;;;10.30;6.97;;;;;;;;;;4388987;32;320008;-79
2023/07/11 08:17:10;;;;;;;9.75;6.20;;;;;;;;;;4399489;32;319140;-80
2023/07/11 08:19:37;;;;;;;8.80;6.95;;;;;;;;;;4389340;32;317168;-80
2023/07/11 08:22:04;;;;;;;7.57;6.55;;;;;;;;;;4399278;32;317246;-80
2023/07/11 08:24:31;;;;;;;8.57;6.30;;;;;;;;;;4389404;32;316442;-79
2023/07/11 08:26:58;;;;;;;7.82;5.97;;;;;;;;;;4400279;32;316860;-79
2023/07/11 08:29:24;;;;;;;9.23;6.30;;;;;;;;;;4388927;32;317537;-79
2023/07/11 08:31:53;;;;;;;9.27;6.53;;;;;;;;;;4397590;32;352968;-78
2023/07/11 08:34:21;;;;;;;7.37;5.87;;;;;;;;;;4389296;32;317256;-79
2023/07/11 08:36:48;;;;;;;9.13;6.78;;;;;;;;;;4398794;32;316487;-79
2023/07/11 08:39:15;;;;;;;8.77;6.60;;;;;;;;;;4397936;32;317595;-79
2023/07/11 08:41:45;;;;;;;10.07;6.37;;;;;;;;;;4377240;32;416906;-79
2023/07/11 08:44:16;;;;;;;12.98;6.20;;;;;;;;;;4398341;32;317848;-79
2023/07/11 08:46:51;;;;;;;8.35;5.78;;;;;;;;;;4386287;32;417300;-79
2023/07/11 08:49:25;;;;;;;9.35;6.00;;;;;;;;;;4389110;32;316716;-79
2023/07/11 08:51:55;;;;;;;9.02;6.35;;;;;;;;;;4398887;32;317045;-78
2023/07/11 08:54:28;;;;;;;9.73;6.32;;;;;;;;;;4388855;32;317168;-79
2023/07/11 08:56:56;;;;;;;9.00;5.95;;;;;;;;;;4399852;32;316698;-79
2023/07/11 08:59:29;;;;;;;5.60;5.05;;;;;;;;;;4389801;32;316461;-80
2023/07/11 09:02:07;;;;;;;13.80;6.00;;;;;;;;;;4399632;32;316587;-78
2023/07/11 09:04:39;;;;;;;8.68;6.28;;;;;;;;;;4388312;32;318086;-79
2023/07/11 09:07:10;;;;;;;6.87;5.78;;;;;;;;;;4392760;32;316627;-78
2023/07/11 09:09:37;;;;;;;8.30;5.90;;;;;;;;;;4387468;32;317109;-78
2023/07/11 09:12:23;;;;;;;9.32;5.40;;;;;;;;;;4396110;32;317786;-80
2023/07/11 09:14:57;;;;;;;9.77;5.93;;;;;;;;;;4384100;32;416616;-79
2023/07/11 09:17:35;;;;;;;7.12;5.93;;;;;;;;;;4389652;32;317445;-80
2023/07/11 09:20:20;;;;;;;7.80;5.97;;;;;;;;;;4385377;32;317234;-78
2023/07/11 09:22:56;;;;;;;12.98;5.87;;;;;;;;;;4385972;32;417979;-79
2023/07/11 09:25:26;;;;;;;10.50;5.45;;;;;;;;;;4388237;32;318322;-79
2023/07/11 09:27:55;;;;;;;7.47;5.30;;;;;;;;;;4398774;32;317439;-80
2023/07/11 09:30:30;;;;;;;8.70;5.68;;;;;;;;;;4389157;32;317108;-80
2023/07/11 09:33:11;;;;;;;12.75;5.35;;;;;;;;;;4398023;32;317422;-80
2023/07/11 09:35:40;;;;;;;9.00;6.25;;;;;;;;;;4389488;32;318170;-79
2023/07/11 09:38:11;;;;;;;13.65;6.37;;;;;;;;;;4397568;32;317571;-79
2023/07/11 09:40:42;;;;;;;10.88;5.37;;;;;;;;;;4389023;32;318327;-79
2023/07/11 09:43:10;;;;;;;7.55;5.12;;;;;;;;;;4396576;32;317656;-80
2023/07/11 09:45:39;;;;;;;9.27;5.82;;;;;;;;;;4381273;32;317073;-79
2023/07/11 09:48:11;;;;;;;6.20;5.18;;;;;;;;;;4399207;32;316607;-80
2023/07/11 09:51:09;;;;;;;11.85;4.57;;;;;;;;;;4389205;32;317112;-81
2023/07/11 09:53:36;;;;;;;6.28;4.50;;;;;;;;;;4387362;32;318529;-80
2023/07/11 09:56:10;;;;;;;8.13;5.30;;;;;;;;;;4396137;32;317133;-80
2023/07/11 09:58:37;;;;;;;11.38;4.35;;;;;;;;;;4386358;32;317176;-81
2023/07/11 10:01:05;;;;;;;10.73;5.05;;;;;;;;;;4391212;32;318326;-80
2023/07/11 10:03:34;;;;;;;6.80;4.55;;;;;;;;;;4387078;32;318315;-80
2023/07/11 10:06:05;;;;;;;5.18;4.68;;;;;;;;;;4397545;32;317595;-80
2023/07/11 10:08:37;;;;;;;7.57;5.05;;;;;;;;;;4386144;32;341690;-80
2023/07/11 10:11:06;;;;;;;5.90;4.62;;;;;;;;;;4397701;32;316661;-80
2023/07/11 10:13:33;;;;;;;9.13;5.03;;;;;;;;;;4382550;32;316875;-79
2023/07/11 10:16:00;;;;;;;5.78;4.70;;;;;;;;;;4384358;32;317565;-81
2023/07/11 10:18:29;;;;;;;6.12;4.50;;;;;;;;;;4388563;32;317055;-81
2023/07/11 10:20:59;;;;;;;12.93;5.40;;;;;;;;;;4398044;32;317254;-80
2023/07/11 10:23:28;;;;;;;11.18;5.25;;;;;;;;;;4386506;32;317551;-79
2023/07/11 10:26:04;;;;;;;12.80;5.05;;;;;;;;;;4396620;32;318575;-80
2023/07/11 10:28:34;;;;;;;8.77;4.65;;;;;;;;;;4386938;32;317546;-80
2023/07/11 10:31:11;;;;;;;11.82;5.82;;;;;;;;;;4395466;32;317432;-80
2023/07/11 10:33:47;;;;;;;6.05;4.50;;;;;;;;;;4386578;32;318253;-80
2023/07/11 10:36:19;;;;;;;7.75;4.78;;;;;;;;;;4394950;32;317394;-80
2023/07/11 10:38:55;;;;;;;9.18;4.20;;;;;;;;;;4382784;32;415581;-80
2023/07/11 10:41:26;;;;;;;8.13;4.97;;;;;;;;;;4385901;32;317394;-81
2023/07/11 10:43:54;;;;;;;7.00;5.12;;;;;;;;;;4383330;32;317302;-80
2023/07/11 10:46:34;;;;;;;5.40;4.60;;;;;;;;;;4377200;32;367402;-80
2023/07/11 10:49:06;;;;;;;10.90;5.12;;;;;;;;;;4396075;32;317210;-80
2023/07/11 10:51:40;;;;;;;9.30;5.43;;;;;;;;;;4388511;32;318580;-86
2023/07/11 10:54:17;;;;;;;7.18;4.82;;;;;;;;;;4398212;32;317459;-80
2023/07/11 10:56:48;;;;;;;9.80;5.30;;;;;;;;;;4385552;32;416400;-80
2023/07/11 10:59:18;;;;;;;6.28;4.97;;;;;;;;;;4398096;32;316504;-80
2023/07/11 11:01:57;;;;;;;7.22;4.65;;;;;;;;;;4385369;32;416701;-80
2023/07/11 11:04:52;;;;;;;9.77;5.35;;;;;;;;;;4386934;32;317024;-80
2023/07/11 11:07:26;;;;;;;12.80;5.80;;;;;;;;;;4387963;32;317244;-80
2023/07/11 11:10:04;;;;;;;8.10;4.85;;;;;;;;;;4382069;32;318616;-81
2023/07/11 11:12:38;;;;;;;7.97;4.62;;;;;;;;;;4372034;32;317418;-80
2023/07/11 11:15:29;;;;;;;6.07;4.85;;;;;;;;;;4391268;32;317508;-80
2023/07/11 11:18:09;;;;;;;8.70;5.50;;;;;;;;;;4384719;32;416812;-82
2023/07/11 11:20:45;;;;;;;8.10;4.55;;;;;;;;;;4386028;32;329386;-81
2023/07/11 11:23:29;;;;;;;7.80;5.10;;;;;;;;;;4386814;32;316852;-81
2023/07/11 11:26:14;;;;;;;8.15;5.43;;;;;;;;;;4368952;32;418831;-81
2023/07/11 11:28:49;;;;;;;7.03;6.12;;;;;;;;;;4368730;32;416932;-81
2023/07/11 11:31:23;;;;;;;7.90;5.15;;;;;;;;;;4385430;32;317443;-83
2023/07/11 11:34:02;;;;;;;11.18;5.12;;;;;;;;;;4401234;32;317681;-81
2023/07/11 11:36:31;;;;;;;14.55;4.90;;;;;;;;;;4387448;32;318054;-81
2023/07/11 11:39:13;;;;;;;6.35;5.12;;;;;;;;;;4390763;32;318270;-81
2023/07/11 11:41:45;;;;;;;7.87;4.75;;;;;;;;;;4390059;32;317033;-81
2023/07/11 11:44:16;;;;;;;7.28;5.45;;;;;;;;;;4407990;32;317569;-82
2023/07/11 11:46:45;;;;;;;6.28;4.80;;;;;;;;;;4388324;32;416295;-81
2023/07/11 11:49:13;;;;;;;7.53;4.75;;;;;;;;;;4391585;32;317451;-81
2023/07/11 11:51:41;;;;;;;6.55;4.78;;;;;;;;;;4384230;32;342694;-82
2023/07/11 11:54:18;;;;;;;10.30;6.75;;;;;;;;;;4386335;32;317166;-82
2023/07/11 11:56:52;;;;;;;11.95;5.25;;;;;;;;;;4387021;32;417582;-82
2023/07/11 11:59:21;;;;;;;14.75;5.53;;;;;;;;;;4389796;32;349659;-80
2023/07/11 12:01:59;;;;;;;6.40;4.62;;;;;;;;;;4392400;32;318604;-81
2023/07/11 12:04:56;;;;;;;8.13;5.37;;;;;;;;;;4393849;32;317615;-82
2023/07/11 12:07:26;;;;;;;8.30;5.60;;;;;;;;;;4399160;32;317282;-82
2023/07/11 12:10:19;;;;;;;10.25;4.80;;;;;;;;;;4383592;32;417650;-82
2023/07/11 12:13:27;;;;;;;17.27;5.37;;;;;;;;;;4384096;32;351241;-82
2023/07/11 12:15:56;;;;;;;5.55;4.68;;;;;;;;;;4371100;32;420371;-82
2023/07/11 12:18:44;;;;;;;10.10;5.03;;;;;;;;;;4390829;32;317718;-82
2023/07/11 12:21:25;;;;;;;11.63;5.72;;;;;;;;;;4380619;32;418591;-83
2023/07/11 12:23:53;;;;;;;6.50;4.75;;;;;;;;;;4386870;32;418705;-82
2023/07/11 12:26:22;;;;;;;7.05;5.22;;;;;;;;;;4399834;32;317263;-83
2023/07/11 12:28:51;;;;;;;5.75;4.45;;;;;;;;;;4388477;32;317318;-82
2023/07/11 12:31:21;;;;;;;5.32;4.50;;;;;;;;;;4400027;32;316743;-82
2023/07/11 12:34:12;;;;;;;5.85;4.75;;;;;;;;;;4390325;32;317417;-81
2023/07/11 12:36:57;;;;;;;7.80;4.18;;;;;;;;;;4383635;32;317343;-82
2023/07/11 12:39:44;;;;;;;7.68;4.68;;;;;;;;;;4399177;32;317213;-81
2023/07/11 12:42:25;;;;;;;9.60;5.15;;;;;;;;;;4387441;32;418925;-82
2023/07/11 12:44:53;;;;;;;5.72;4.55;;;;;;;;;;4389834;32;317375;-82
2023/07/11 12:47:20;;;;;;;5.47;4.70;;;;;;;;;;4399813;32;317649;-81
2023/07/11 12:49:50;;;;;;;7.75;4.82;;;;;;;;;;4388845;32;317274;-82
2023/07/11 12:52:18;;;;;;;8.63;4.78;;;;;;;;;;4399795;32;317299;-82
2023/07/11 12:54:45;;;;;;;5.97;5.37;;;;;;;;;;4389992;32;316801;-81
2023/07/11 12:57:16;;;;;;;9.02;5.45;;;;;;;;;;4398617;32;316578;-81
2023/07/11 12:59:43;;;;;;;6.73;4.90;;;;;;;;;;4388984;32;317300;-81
2023/07/11 13:02:14;;;;;;;6.47;5.57;;;;;;;;;;4399670;32;316772;-81
2023/07/11 13:04:42;;;;;;;6.97;4.87;;;;;;;;;;4390128;32;317108;-82
2023/07/11 13:07:12;;;;;;;8.85;4.87;;;;;;;;;;4399546;32;316589;-81
2023/07/11 13:09:44;;;;;;;7.78;5.15;;;;;;;;;;4388715;32;317123;-81
2023/07/11 13:12:16;;;;;;;9.57;5.25;;;;;;;;;;4395006;32;335207;-81
2023/07/11 13:14:45;;;;;;;7.27;5.13;;;;;;;;;;4381309;32;317440;-81
2023/07/11 13:17:15;;;;;;;6.70;4.32;;;;;;;;;;4384291;32;316666;-82
2023/07/11 13:19:43;;;;;;;6.00;5.18;;;;;;;;;;4372614;32;317084;-81
2023/07/11 13:22:14;;;;;;;6.03;4.55;;;;;;;;;;4384207;32;317218;-82
2023/07/11 13:24:41;;;;;;;8.18;5.18;;;;;;;;;;4373782;32;342485;-81
2023/07/11 13:27:18;;;;;;;8.60;5.85;;;;;;;;;;4384168;32;317625;-82
2023/07/11 13:29:44;;;;;;;6.00;4.22;;;;;;;;;;4374567;32;317284;-82
2023/07/11 13:32:17;;;;;;;8.50;5.03;;;;;;;;;;4383007;32;317282;-82
2023/07/11 13:34:48;;;;;;;6.82;5.18;;;;;;;;;;4374287;32;317528;-82
2023/07/11 13:37:22;;;;;;;15.27;5.68;;;;;;;;;;4383348;32;317229;-81
2023/07/11 13:39:49;;;;;;;6.53;4.82;;;;;;;;;;4372997;32;317773;-81
2023/07/11 13:42:17;;;;;;;7.62;5.28;;;;;;;;;;4382353;32;317218;-81
2023/07/11 13:44:48;;;;;;;7.00;4.95;;;;;;;;;;4374129;32;317288;-81
2023/07/11 13:47:22;;;;;;;5.90;5.30;;;;;;;;;;4383950;32;316642;-81
2023/07/11 13:49:58;;;;;;;9.90;5.30;;;;;;;;;;4373925;32;317370;-81
2023/07/11 13:52:32;;;;;;;7.20;5.37;;;;;;;;;;4384222;32;316566;-81
2023/07/11 13:55:05;;;;;;;7.93;5.45;;;;;;;;;;4356760;32;416004;-81
2023/07/11 13:57:33;;;;;;;6.80;5.67;;;;;;;;;;4373391;32;317568;-81
2023/07/11 14:00:00;;;;;;;9.82;5.70;;;;;;;;;;4383883;32;316494;-80
2023/07/11 14:02:34;;;;;;;9.55;5.20;;;;;;;;;;4373789;32;317242;-81
2023/07/11 14:05:01;;;;;;;5.35;4.80;;;;;;;;;;4381826;32;317308;-81
2023/07/11 14:07:28;;;;;;;7.37;5.82;;;;;;;;;;4360008;32;321043;-81
2023/07/11 14:09:54;;;;;;;8.35;5.57;;;;;;;;;;4383395;32;317344;-81
2023/07/11 14:12:21;;;;;;;7.53;5.80;;;;;;;;;;4382113;32;317591;-81
2023/07/11 14:14:48;;;;;;;8.35;5.57;;;;;;;;;;4379972;32;334070;-79
2023/07/11 14:17:17;;;;;;;9.38;5.55;;;;;;;;;;4397977;32;316612;-78
2023/07/11 14:19:45;;;;;;;13.62;5.40;;;;;;;;;;4388350;32;316607;-81
2023/07/11 14:22:14;;;;;;;7.10;5.25;;;;;;;;;;4398653;32;318833;-81
2023/07/11 14:24:43;;;;;;;5.50;4.97;;;;;;;;;;4387027;32;342993;-80
2023/07/11 14:27:13;;;;;;;8.02;5.65;;;;;;;;;;4397205;32;317517;-80
2023/07/11 14:29:40;;;;;;;10.48;6.03;;;;;;;;;;4388553;32;317321;-84
2023/07/11 14:32:13;;;;;;;9.55;5.62;;;;;;;;;;4383204;32;323110;-78
2023/07/11 14:34:40;;;;;;;6.55;5.10;;;;;;;;;;4385571;32;329718;-80
2023/07/11 14:37:13;;;;;;;10.25;5.20;;;;;;;;;;4394283;32;345323;-80
2023/07/11 14:39:40;;;;;;;8.27;5.00;;;;;;;;;;4383488;32;326678;-79